sensor_id;sensor_type;location;lat;lon;timestamp;P1;durP1;ratioP1;P2;durP2;ratioP2
22166;SDS011;11249;52.468;13.776;2023-04-03T00:00:46;9.63;;;3.28;;
22166;SDS011;11249;52.468;13.776;2023-04-03T00:03:16;7.43;;;1.92;;
22166;SDS011;11249;52.468;13.776;2023-04-03T00:05:43;4.60;;;1.70;;
22166;SDS011;11249;52.468;13.776;2023-04-03T00:08:11;5.63;;;1.73;;
22166;SDS011;11249;52.468;13.776;2023-04-03T00:10:38;5.15;;;1.83;;
22166;SDS011;11249;52.468;13.776;2023-04-03T00:13:05;5.50;;;1.67;;
22166;SDS011;11249;52.468;13.776;2023-04-03T00:15:33;7.53;;;1.65;;
22166;SDS011;11249;52.468;13.776;2023-04-03T00:18:00;9.52;;;2.33;;
22166;SDS011;11249;52.468;13.776;2023-04-03T00:20:28;5.80;;;1.92;;
22166;SDS011;11249;52.468;13.776;2023-04-03T00:22:55;7.22;;;2.13;;
22166;SDS011;11249;52.468;13.776;2023-04-03T00:25:22;8.43;;;1.83;;
22166;SDS011;11249;52.468;13.776;2023-04-03T00:27:48;8.38;;;2.10;;
22166;SDS011;11249;52.468;13.776;2023-04-03T00:30:17;6.65;;;2.03;;
22166;SDS011;11249;52.468;13.776;2023-04-03T00:32:44;7.57;;;2.35;;
22166;SDS011;11249;52.468;13.776;2023-04-03T00:35:13;4.97;;;1.58;;
22166;SDS011;11249;52.468;13.776;2023-04-03T00:37:42;11.98;;;2.25;;
22166;SDS011;11249;52.468;13.776;2023-04-03T00:40:10;3.75;;;1.70;;
22166;SDS011;11249;52.468;13.776;2023-04-03T00:42:39;6.22;;;2.00;;
22166;SDS011;11249;52.468;13.776;2023-04-03T00:47:37;6.55;;;1.67;;
22166;SDS011;11249;52.468;13.776;2023-04-03T00:50:06;12.13;;;1.90;;
22166;SDS011;11249;52.468;13.776;2023-04-03T00:52:33;4.00;;;1.80;;
22166;SDS011;11249;52.468;13.776;2023-04-03T00:55:01;5.22;;;1.67;;
22166;SDS011;11249;52.468;13.776;2023-04-03T00:57:32;4.05;;;1.38;;
22166;SDS011;11249;52.468;13.776;2023-04-03T01:00:03;6.47;;;1.98;;
22166;SDS011;11249;52.468;13.776;2023-04-03T01:02:33;6.70;;;1.90;;
22166;SDS011;11249;52.468;13.776;2023-04-03T01:04:59;8.48;;;2.33;;
22166;SDS011;11249;52.468;13.776;2023-04-03T01:07:27;4.72;;;1.65;;
22166;SDS011;11249;52.468;13.776;2023-04-03T01:09:57;8.30;;;1.77;;
22166;SDS011;11249;52.468;13.776;2023-04-03T01:12:27;5.63;;;2.22;;
22166;SDS011;11249;52.468;13.776;2023-04-03T01:15:23;3.95;;;1.60;;
22166;SDS011;11249;52.468;13.776;2023-04-03T01:17:53;5.72;;;1.52;;
22166;SDS011;11249;52.468;13.776;2023-04-03T01:25:38;11.33;;;2.20;;
22166;SDS011;11249;52.468;13.776;2023-04-03T01:28:08;5.38;;;1.60;;
22166;SDS011;11249;52.468;13.776;2023-04-03T01:33:10;10.18;;;1.92;;
22166;SDS011;11249;52.468;13.776;2023-04-03T01:35:37;6.32;;;1.60;;
22166;SDS011;11249;52.468;13.776;2023-04-03T01:38:04;5.75;;;1.90;;
22166;SDS011;11249;52.468;13.776;2023-04-03T01:40:31;6.25;;;1.80;;
22166;SDS011;11249;52.468;13.776;2023-04-03T01:42:58;3.92;;;1.40;;
22166;SDS011;11249;52.468;13.776;2023-04-03T01:45:25;4.63;;;1.40;;
22166;SDS011;11249;52.468;13.776;2023-04-03T01:47:51;5.82;;;2.15;;
22166;SDS011;11249;52.468;13.776;2023-04-03T01:50:18;7.15;;;1.48;;
22166;SDS011;11249;52.468;13.776;2023-04-03T01:52:45;6.38;;;3.25;;
22166;SDS011;11249;52.468;13.776;2023-04-03T01:55:12;5.80;;;1.75;;
22166;SDS011;11249;52.468;13.776;2023-04-03T01:57:38;9.30;;;2.38;;
22166;SDS011;11249;52.468;13.776;2023-04-03T02:00:05;7.38;;;2.10;;
22166;SDS011;11249;52.468;13.776;2023-04-03T02:02:34;10.80;;;2.42;;
22166;SDS011;11249;52.468;13.776;2023-04-03T02:05:00;6.72;;;1.70;;
22166;SDS011;11249;52.468;13.776;2023-04-03T02:07:27;6.38;;;1.65;;
22166;SDS011;11249;52.468;13.776;2023-04-03T02:09:54;6.07;;;1.83;;
22166;SDS011;11249;52.468;13.776;2023-04-03T02:12:21;6.07;;;2.25;;
22166;SDS011;11249;52.468;13.776;2023-04-03T02:14:47;4.00;;;1.48;;
22166;SDS011;11249;52.468;13.776;2023-04-03T02:17:14;2.08;;;1.40;;
22166;SDS011;11249;52.468;13.776;2023-04-03T02:19:41;4.75;;;1.50;;
22166;SDS011;11249;52.468;13.776;2023-04-03T02:22:08;7.07;;;2.03;;
22166;SDS011;11249;52.468;13.776;2023-04-03T02:24:34;5.70;;;1.67;;
22166;SDS011;11249;52.468;13.776;2023-04-03T02:27:01;6.05;;;2.17;;
22166;SDS011;11249;52.468;13.776;2023-04-03T02:29:28;4.32;;;1.73;;
22166;SDS011;11249;52.468;13.776;2023-04-03T02:31:54;5.63;;;1.90;;
22166;SDS011;11249;52.468;13.776;2023-04-03T02:34:21;5.80;;;1.90;;
22166;SDS011;11249;52.468;13.776;2023-04-03T02:36:48;6.30;;;1.95;;
22166;SDS011;11249;52.468;13.776;2023-04-03T02:39:15;8.73;;;1.63;;
22166;SDS011;11249;52.468;13.776;2023-04-03T02:41:42;4.93;;;2.03;;
22166;SDS011;11249;52.468;13.776;2023-04-03T02:44:11;4.63;;;1.70;;
22166;SDS011;11249;52.468;13.776;2023-04-03T02:46:38;9.32;;;2.47;;
22166;SDS011;11249;52.468;13.776;2023-04-03T02:49:05;6.03;;;1.95;;
22166;SDS011;11249;52.468;13.776;2023-04-03T02:51:32;5.95;;;1.67;;
22166;SDS011;11249;52.468;13.776;2023-04-03T02:53:59;3.88;;;1.80;;
22166;SDS011;11249;52.468;13.776;2023-04-03T02:56:26;8.63;;;1.77;;
22166;SDS011;11249;52.468;13.776;2023-04-03T02:58:53;6.50;;;1.85;;
22166;SDS011;11249;52.468;13.776;2023-04-03T03:01:20;3.60;;;1.48;;
22166;SDS011;11249;52.468;13.776;2023-04-03T03:03:54;9.73;;;2.42;;
22166;SDS011;11249;52.468;13.776;2023-04-03T03:06:21;3.63;;;1.90;;
22166;SDS011;11249;52.468;13.776;2023-04-03T03:08:47;9.27;;;2.42;;
22166;SDS011;11249;52.468;13.776;2023-04-03T03:11:14;6.93;;;2.53;;
22166;SDS011;11249;52.468;13.776;2023-04-03T03:13:41;3.95;;;1.63;;
22166;SDS011;11249;52.468;13.776;2023-04-03T03:16:07;5.95;;;1.90;;
22166;SDS011;11249;52.468;13.776;2023-04-03T03:18:34;6.60;;;2.42;;
22166;SDS011;11249;52.468;13.776;2023-04-03T03:21:02;5.50;;;2.63;;
22166;SDS011;11249;52.468;13.776;2023-04-03T03:23:30;5.68;;;2.22;;
22166;SDS011;11249;52.468;13.776;2023-04-03T03:25:59;7.28;;;2.33;;
22166;SDS011;11249;52.468;13.776;2023-04-03T03:28:27;7.78;;;2.95;;
22166;SDS011;11249;52.468;13.776;2023-04-03T03:30:54;7.18;;;2.95;;
22166;SDS011;11249;52.468;13.776;2023-04-03T03:33:21;19.42;;;5.30;;
22166;SDS011;11249;52.468;13.776;2023-04-03T03:35:47;14.27;;;4.00;;
22166;SDS011;11249;52.468;13.776;2023-04-03T03:38:14;8.40;;;2.72;;
22166;SDS011;11249;52.468;13.776;2023-04-03T03:40:41;9.82;;;2.47;;
22166;SDS011;11249;52.468;13.776;2023-04-03T03:43:08;7.68;;;2.28;;
22166;SDS011;11249;52.468;13.776;2023-04-03T03:45:35;7.13;;;2.17;;
22166;SDS011;11249;52.468;13.776;2023-04-03T03:48:03;9.77;;;2.20;;
22166;SDS011;11249;52.468;13.776;2023-04-03T03:50:30;8.65;;;2.13;;
22166;SDS011;11249;52.468;13.776;2023-04-03T03:52:57;7.35;;;2.05;;
22166;SDS011;11249;52.468;13.776;2023-04-03T03:55:23;5.88;;;3.05;;
22166;SDS011;11249;52.468;13.776;2023-04-03T03:57:50;7.75;;;2.35;;
22166;SDS011;11249;52.468;13.776;2023-04-03T04:00:17;6.45;;;2.40;;
22166;SDS011;11249;52.468;13.776;2023-04-03T04:02:44;7.13;;;2.28;;
22166;SDS011;11249;52.468;13.776;2023-04-03T04:05:12;9.80;;;3.15;;
22166;SDS011;11249;52.468;13.776;2023-04-03T04:07:39;6.40;;;2.45;;
22166;SDS011;11249;52.468;13.776;2023-04-03T04:10:05;9.88;;;2.30;;
22166;SDS011;11249;52.468;13.776;2023-04-03T04:12:32;8.25;;;2.05;;
22166;SDS011;11249;52.468;13.776;2023-04-03T04:15:02;8.55;;;2.58;;
22166;SDS011;11249;52.468;13.776;2023-04-03T04:17:29;9.48;;;2.38;;
22166;SDS011;11249;52.468;13.776;2023-04-03T04:19:55;5.60;;;2.00;;
22166;SDS011;11249;52.468;13.776;2023-04-03T04:22:22;10.80;;;2.97;;
22166;SDS011;11249;52.468;13.776;2023-04-03T04:24:49;8.77;;;2.20;;
22166;SDS011;11249;52.468;13.776;2023-04-03T04:27:15;6.97;;;2.40;;
22166;SDS011;11249;52.468;13.776;2023-04-03T04:29:42;9.90;;;2.63;;
22166;SDS011;11249;52.468;13.776;2023-04-03T04:32:09;7.77;;;2.43;;
22166;SDS011;11249;52.468;13.776;2023-04-03T04:34:36;7.03;;;2.30;;
22166;SDS011;11249;52.468;13.776;2023-04-03T04:37:03;7.53;;;2.33;;
22166;SDS011;11249;52.468;13.776;2023-04-03T04:39:30;13.50;;;3.47;;
22166;SDS011;11249;52.468;13.776;2023-04-03T04:41:57;7.03;;;3.13;;
22166;SDS011;11249;52.468;13.776;2023-04-03T04:44:24;11.40;;;2.70;;
22166;SDS011;11249;52.468;13.776;2023-04-03T04:46:51;3.73;;;2.30;;
22166;SDS011;11249;52.468;13.776;2023-04-03T04:49:17;11.00;;;2.90;;
22166;SDS011;11249;52.468;13.776;2023-04-03T04:51:44;8.67;;;2.43;;
22166;SDS011;11249;52.468;13.776;2023-04-03T04:54:17;8.13;;;2.77;;
22166;SDS011;11249;52.468;13.776;2023-04-03T04:56:44;9.60;;;3.07;;
22166;SDS011;11249;52.468;13.776;2023-04-03T04:59:11;5.83;;;2.90;;
22166;SDS011;11249;52.468;13.776;2023-04-03T05:01:38;5.47;;;2.40;;
22166;SDS011;11249;52.468;13.776;2023-04-03T05:04:05;9.67;;;2.77;;
22166;SDS011;11249;52.468;13.776;2023-04-03T05:06:32;8.47;;;2.80;;
22166;SDS011;11249;52.468;13.776;2023-04-03T05:09:02;10.10;;;2.67;;
22166;SDS011;11249;52.468;13.776;2023-04-03T05:13:56;5.57;;;2.90;;
22166;SDS011;11249;52.468;13.776;2023-04-03T05:16:22;7.00;;;2.47;;
22166;SDS011;11249;52.468;13.776;2023-04-03T05:18:49;11.20;;;2.60;;
22166;SDS011;11249;52.468;13.776;2023-04-03T05:21:16;8.90;;;2.90;;
22166;SDS011;11249;52.468;13.776;2023-04-03T05:23:44;9.77;;;3.13;;
22166;SDS011;11249;52.468;13.776;2023-04-03T05:26:11;6.07;;;2.97;;
22166;SDS011;11249;52.468;13.776;2023-04-03T05:28:38;6.67;;;2.53;;
22166;SDS011;11249;52.468;13.776;2023-04-03T05:31:05;8.33;;;3.10;;
22166;SDS011;11249;52.468;13.776;2023-04-03T05:33:31;7.90;;;3.00;;
22166;SDS011;11249;52.468;13.776;2023-04-03T05:36:01;11.13;;;3.10;;
22166;SDS011;11249;52.468;13.776;2023-04-03T05:38:29;6.83;;;3.00;;
22166;SDS011;11249;52.468;13.776;2023-04-03T05:40:56;7.70;;;2.50;;
22166;SDS011;11249;52.468;13.776;2023-04-03T05:43:23;11.27;;;2.80;;
22166;SDS011;11249;52.468;13.776;2023-04-03T05:45:50;10.97;;;2.83;;
22166;SDS011;11249;52.468;13.776;2023-04-03T05:48:18;10.50;;;2.70;;
22166;SDS011;11249;52.468;13.776;2023-04-03T05:50:45;11.03;;;2.93;;
22166;SDS011;11249;52.468;13.776;2023-04-03T05:53:15;10.00;;;2.60;;
22166;SDS011;11249;52.468;13.776;2023-04-03T05:55:46;10.13;;;3.17;;
22166;SDS011;11249;52.468;13.776;2023-04-03T05:58:13;5.67;;;1.80;;
22166;SDS011;11249;52.468;13.776;2023-04-03T06:00:40;6.13;;;2.20;;
22166;SDS011;11249;52.468;13.776;2023-04-03T06:03:07;7.95;;;2.47;;
22166;SDS011;11249;52.468;13.776;2023-04-03T06:05:34;6.80;;;2.25;;
22166;SDS011;11249;52.468;13.776;2023-04-03T06:08:02;3.53;;;2.17;;
22166;SDS011;11249;52.468;13.776;2023-04-03T06:10:29;6.35;;;2.47;;
22166;SDS011;11249;52.468;13.776;2023-04-03T06:12:56;8.95;;;2.75;;
22166;SDS011;11249;52.468;13.776;2023-04-03T06:15:23;8.70;;;3.03;;
22166;SDS011;11249;52.468;13.776;2023-04-03T06:17:50;5.82;;;2.55;;
22166;SDS011;11249;52.468;13.776;2023-04-03T06:20:17;11.73;;;3.17;;
22166;SDS011;11249;52.468;13.776;2023-04-03T06:22:44;10.02;;;2.95;;
22166;SDS011;11249;52.468;13.776;2023-04-03T06:25:12;10.90;;;2.92;;
22166;SDS011;11249;52.468;13.776;2023-04-03T06:27:38;10.43;;;2.17;;
22166;SDS011;11249;52.468;13.776;2023-04-03T06:30:06;10.10;;;2.55;;
22166;SDS011;11249;52.468;13.776;2023-04-03T06:32:33;10.48;;;2.28;;
22166;SDS011;11249;52.468;13.776;2023-04-03T06:35:00;6.05;;;2.40;;
22166;SDS011;11249;52.468;13.776;2023-04-03T06:37:26;6.75;;;3.05;;
22166;SDS011;11249;52.468;13.776;2023-04-03T06:39:55;4.25;;;2.40;;
22166;SDS011;11249;52.468;13.776;2023-04-03T06:42:22;5.22;;;1.95;;
22166;SDS011;11249;52.468;13.776;2023-04-03T06:44:49;4.70;;;2.13;;
22166;SDS011;11249;52.468;13.776;2023-04-03T06:47:16;9.70;;;2.35;;
22166;SDS011;11249;52.468;13.776;2023-04-03T06:49:43;7.35;;;1.90;;
22166;SDS011;11249;52.468;13.776;2023-04-03T06:52:11;4.93;;;1.60;;
22166;SDS011;11249;52.468;13.776;2023-04-03T06:54:38;3.72;;;1.38;;
22166;SDS011;11249;52.468;13.776;2023-04-03T06:57:06;4.45;;;1.73;;
22166;SDS011;11249;52.468;13.776;2023-04-03T06:59:34;4.93;;;1.42;;
22166;SDS011;11249;52.468;13.776;2023-04-03T07:02:02;6.97;;;1.50;;
22166;SDS011;11249;52.468;13.776;2023-04-03T07:04:30;8.48;;;1.42;;
22166;SDS011;11249;52.468;13.776;2023-04-03T07:06:57;7.40;;;1.35;;
22166;SDS011;11249;52.468;13.776;2023-04-03T07:09:23;2.80;;;0.98;;
22166;SDS011;11249;52.468;13.776;2023-04-03T07:11:50;4.03;;;1.35;;
22166;SDS011;11249;52.468;13.776;2023-04-03T07:14:17;3.03;;;1.17;;
22166;SDS011;11249;52.468;13.776;2023-04-03T07:16:44;10.15;;;2.15;;
22166;SDS011;11249;52.468;13.776;2023-04-03T07:19:11;6.38;;;1.42;;
22166;SDS011;11249;52.468;13.776;2023-04-03T07:21:38;4.82;;;1.23;;
22166;SDS011;11249;52.468;13.776;2023-04-03T07:24:04;5.13;;;1.38;;
22166;SDS011;11249;52.468;13.776;2023-04-03T07:26:34;5.20;;;1.77;;
22166;SDS011;11249;52.468;13.776;2023-04-03T07:29:01;3.92;;;1.55;;
22166;SDS011;11249;52.468;13.776;2023-04-03T07:31:28;5.65;;;1.40;;
22166;SDS011;11249;52.468;13.776;2023-04-03T07:33:55;1.10;;;1.00;;
22166;SDS011;11249;52.468;13.776;2023-04-03T07:36:22;2.75;;;1.40;;
22166;SDS011;11249;52.468;13.776;2023-04-03T07:38:49;2.80;;;1.20;;
22166;SDS011;11249;52.468;13.776;2023-04-03T07:41:17;4.05;;;1.85;;
22166;SDS011;11249;52.468;13.776;2023-04-03T07:43:46;8.32;;;1.80;;
22166;SDS011;11249;52.468;13.776;2023-04-03T07:46:13;3.70;;;1.55;;
22166;SDS011;11249;52.468;13.776;2023-04-03T07:48:40;5.07;;;1.30;;
22166;SDS011;11249;52.468;13.776;2023-04-03T07:51:07;5.72;;;1.63;;
22166;SDS011;11249;52.468;13.776;2023-04-03T07:53:33;2.15;;;1.27;;
22166;SDS011;11249;52.468;13.776;2023-04-03T07:56:01;4.18;;;1.13;;
22166;SDS011;11249;52.468;13.776;2023-04-03T07:58:29;5.65;;;1.38;;
22166;SDS011;11249;52.468;13.776;2023-04-03T08:00:56;4.32;;;1.77;;
22166;SDS011;11249;52.468;13.776;2023-04-03T08:03:23;3.92;;;1.40;;
22166;SDS011;11249;52.468;13.776;2023-04-03T08:05:50;4.93;;;1.85;;
22166;SDS011;11249;52.468;13.776;2023-04-03T08:08:18;2.70;;;1.08;;
22166;SDS011;11249;52.468;13.776;2023-04-03T08:10:48;4.72;;;1.73;;
22166;SDS011;11249;52.468;13.776;2023-04-03T08:13:16;3.65;;;1.30;;
22166;SDS011;11249;52.468;13.776;2023-04-03T08:15:44;2.95;;;1.02;;
22166;SDS011;11249;52.468;13.776;2023-04-03T08:18:10;3.00;;;1.58;;
22166;SDS011;11249;52.468;13.776;2023-04-03T08:20:38;3.65;;;1.40;;
22166;SDS011;11249;52.468;13.776;2023-04-03T08:23:06;2.50;;;1.42;;
22166;SDS011;11249;52.468;13.776;2023-04-03T08:25:37;2.75;;;1.10;;
22166;SDS011;11249;52.468;13.776;2023-04-03T08:28:05;5.22;;;1.55;;
22166;SDS011;11249;52.468;13.776;2023-04-03T08:30:32;1.95;;;1.30;;
22166;SDS011;11249;52.468;13.776;2023-04-03T08:33:02;5.70;;;1.38;;
22166;SDS011;11249;52.468;13.776;2023-04-03T08:35:30;3.70;;;1.58;;
22166;SDS011;11249;52.468;13.776;2023-04-03T08:37:56;3.70;;;1.20;;
22166;SDS011;11249;52.468;13.776;2023-04-03T08:40:23;15.55;;;1.90;;
22166;SDS011;11249;52.468;13.776;2023-04-03T08:42:53;2.65;;;1.17;;
22166;SDS011;11249;52.468;13.776;2023-04-03T08:45:43;8.70;;;1.50;;
22166;SDS011;11249;52.468;13.776;2023-04-03T08:48:15;2.25;;;1.35;;
22166;SDS011;11249;52.468;13.776;2023-04-03T08:50:46;2.10;;;1.02;;
22166;SDS011;11249;52.468;13.776;2023-04-03T08:53:19;2.55;;;1.45;;
22166;SDS011;11249;52.468;13.776;2023-04-03T08:55:49;2.78;;;1.33;;
22166;SDS011;11249;52.468;13.776;2023-04-03T08:58:24;6.13;;;1.33;;
22166;SDS011;11249;52.468;13.776;2023-04-03T09:00:57;3.50;;;1.42;;
22166;SDS011;11249;52.468;13.776;2023-04-03T09:03:29;5.25;;;1.65;;
22166;SDS011;11249;52.468;13.776;2023-04-03T09:06:15;6.70;;;1.17;;
22166;SDS011;11249;52.468;13.776;2023-04-03T09:08:52;7.30;;;1.40;;
22166;SDS011;11249;52.468;13.776;2023-04-03T09:14:33;5.93;;;1.30;;
22166;SDS011;11249;52.468;13.776;2023-04-03T09:17:26;1.85;;;1.33;;
22166;SDS011;11249;52.468;13.776;2023-04-03T09:20:17;4.20;;;1.75;;
22166;SDS011;11249;52.468;13.776;2023-04-03T09:22:56;3.33;;;1.10;;
22166;SDS011;11249;52.468;13.776;2023-04-03T09:25:27;3.30;;;1.40;;
22166;SDS011;11249;52.468;13.776;2023-04-03T09:27:59;3.58;;;1.52;;
22166;SDS011;11249;52.468;13.776;2023-04-03T09:30:28;3.08;;;1.45;;
22166;SDS011;11249;52.468;13.776;2023-04-03T09:32:56;1.92;;;1.00;;
22166;SDS011;11249;52.468;13.776;2023-04-03T09:35:33;3.80;;;1.52;;
22166;SDS011;11249;52.468;13.776;2023-04-03T09:38:15;3.80;;;1.20;;
22166;SDS011;11249;52.468;13.776;2023-04-03T09:40:45;2.85;;;1.27;;
22166;SDS011;11249;52.468;13.776;2023-04-03T09:45:55;4.07;;;1.23;;
22166;SDS011;11249;52.468;13.776;2023-04-03T09:48:50;3.33;;;1.23;;
22166;SDS011;11249;52.468;13.776;2023-04-03T09:51:34;6.80;;;1.50;;
22166;SDS011;11249;52.468;13.776;2023-04-03T09:54:01;3.13;;;1.20;;
22166;SDS011;11249;52.468;13.776;2023-04-03T09:56:57;4.75;;;1.27;;
22166;SDS011;11249;52.468;13.776;2023-04-03T09:59:33;4.10;;;1.35;;
22166;SDS011;11249;52.468;13.776;2023-04-03T10:02:16;3.22;;;1.20;;
22166;SDS011;11249;52.468;13.776;2023-04-03T10:04:49;3.35;;;1.30;;
22166;SDS011;11249;52.468;13.776;2023-04-03T10:07:34;3.80;;;1.13;;
22166;SDS011;11249;52.468;13.776;2023-04-03T10:10:17;3.25;;;0.80;;
22166;SDS011;11249;52.468;13.776;2023-04-03T10:12:57;2.00;;;1.10;;
22166;SDS011;11249;52.468;13.776;2023-04-03T10:15:35;1.95;;;1.13;;
22166;SDS011;11249;52.468;13.776;2023-04-03T10:18:15;1.50;;;0.90;;
22166;SDS011;11249;52.468;13.776;2023-04-03T10:20:59;4.68;;;1.50;;
22166;SDS011;11249;52.468;13.776;2023-04-03T10:23:44;2.83;;;1.30;;
22166;SDS011;11249;52.468;13.776;2023-04-03T10:26:17;5.10;;;1.52;;
22166;SDS011;11249;52.468;13.776;2023-04-03T10:29:15;3.70;;;1.48;;
22166;SDS011;11249;52.468;13.776;2023-04-03T10:34:44;2.13;;;1.10;;
22166;SDS011;11249;52.468;13.776;2023-04-03T10:37:24;5.43;;;1.50;;
22166;SDS011;11249;52.468;13.776;2023-04-03T10:42:43;2.47;;;1.27;;
22166;SDS011;11249;52.468;13.776;2023-04-03T10:45:26;3.67;;;1.15;;
22166;SDS011;11249;52.468;13.776;2023-04-03T10:48:04;4.20;;;1.60;;
22166;SDS011;11249;52.468;13.776;2023-04-03T10:53:44;5.07;;;1.40;;
22166;SDS011;11249;52.468;13.776;2023-04-03T10:56:30;6.03;;;1.30;;
22166;SDS011;11249;52.468;13.776;2023-04-03T10:59:09;4.07;;;1.50;;
22166;SDS011;11249;52.468;13.776;2023-04-03T11:01:53;4.53;;;1.27;;
22166;SDS011;11249;52.468;13.776;2023-04-03T11:04:23;2.17;;;1.13;;
22166;SDS011;11249;52.468;13.776;2023-04-03T11:06:57;3.22;;;1.52;;
22166;SDS011;11249;52.468;13.776;2023-04-03T11:09:30;6.53;;;2.10;;
22166;SDS011;11249;52.468;13.776;2023-04-03T11:12:04;4.38;;;1.60;;
22166;SDS011;11249;52.468;13.776;2023-04-03T11:14:38;5.28;;;1.73;;
22166;SDS011;11249;52.468;13.776;2023-04-03T11:20:08;4.60;;;1.73;;
22166;SDS011;11249;52.468;13.776;2023-04-03T11:22:57;4.80;;;1.58;;
22166;SDS011;11249;52.468;13.776;2023-04-03T11:25:28;4.10;;;1.30;;
22166;SDS011;11249;52.468;13.776;2023-04-03T11:27:59;4.53;;;1.90;;
22166;SDS011;11249;52.468;13.776;2023-04-03T11:30:38;5.88;;;1.75;;
22166;SDS011;11249;52.468;13.776;2023-04-03T11:33:32;2.50;;;1.33;;
22166;SDS011;11249;52.468;13.776;2023-04-03T11:38:57;2.22;;;1.25;;
22166;SDS011;11249;52.468;13.776;2023-04-03T11:41:28;3.33;;;1.30;;
22166;SDS011;11249;52.468;13.776;2023-04-03T11:46:51;4.18;;;1.25;;
22166;SDS011;11249;52.468;13.776;2023-04-03T12:13:40;1.88;;;0.95;;
22166;SDS011;11249;52.468;13.776;2023-04-03T12:16:21;3.60;;;1.15;;
22166;SDS011;11249;52.468;13.776;2023-04-03T12:22:09;1.88;;;1.02;;
22166;SDS011;11249;52.468;13.776;2023-04-03T12:24:39;1.63;;;1.05;;
22166;SDS011;11249;52.468;13.776;2023-04-03T12:27:14;8.40;;;1.63;;
22166;SDS011;11249;52.468;13.776;2023-04-03T12:29:55;2.75;;;1.30;;
22166;SDS011;11249;52.468;13.776;2023-04-03T12:44:25;4.25;;;1.38;;
22166;SDS011;11249;52.468;13.776;2023-04-03T12:47:08;3.53;;;1.80;;
22166;SDS011;11249;52.468;13.776;2023-04-03T12:49:49;3.65;;;1.40;;
22166;SDS011;11249;52.468;13.776;2023-04-03T12:55:07;2.72;;;1.25;;
22166;SDS011;11249;52.468;13.776;2023-04-03T12:57:41;2.83;;;1.40;;
22166;SDS011;11249;52.468;13.776;2023-04-03T13:02:55;3.75;;;1.33;;
22166;SDS011;11249;52.468;13.776;2023-04-03T13:05:23;6.88;;;1.80;;
22166;SDS011;11249;52.468;13.776;2023-04-03T13:07:52;4.07;;;1.65;;
22166;SDS011;11249;52.468;13.776;2023-04-03T13:10:29;6.37;;;1.50;;
22166;SDS011;11249;52.468;13.776;2023-04-03T13:13:07;3.00;;;1.40;;
22166;SDS011;11249;52.468;13.776;2023-04-03T13:15:40;2.97;;;1.58;;
22166;SDS011;11249;52.468;13.776;2023-04-03T13:18:23;5.18;;;2.28;;
22166;SDS011;11249;52.468;13.776;2023-04-03T13:21:10;4.43;;;1.58;;
22166;SDS011;11249;52.468;13.776;2023-04-03T13:23:49;4.35;;;1.60;;
22166;SDS011;11249;52.468;13.776;2023-04-03T13:26:32;2.33;;;1.42;;
22166;SDS011;11249;52.468;13.776;2023-04-03T13:29:03;3.65;;;1.42;;
22166;SDS011;11249;52.468;13.776;2023-04-03T13:31:45;2.67;;;1.40;;
22166;SDS011;11249;52.468;13.776;2023-04-03T13:34:13;4.20;;;1.70;;
22166;SDS011;11249;52.468;13.776;2023-04-03T13:39:28;5.25;;;1.70;;
22166;SDS011;11249;52.468;13.776;2023-04-03T13:42:16;4.85;;;1.65;;
22166;SDS011;11249;52.468;13.776;2023-04-03T13:47:48;3.38;;;1.20;;
22166;SDS011;11249;52.468;13.776;2023-04-03T13:52:52;4.13;;;1.80;;
22166;SDS011;11249;52.468;13.776;2023-04-03T13:55:25;3.10;;;1.40;;
22166;SDS011;11249;52.468;13.776;2023-04-03T13:57:57;3.60;;;1.52;;
22166;SDS011;11249;52.468;13.776;2023-04-03T14:00:34;4.25;;;1.48;;
22166;SDS011;11249;52.468;13.776;2023-04-03T14:03:19;4.28;;;1.45;;
22166;SDS011;11249;52.468;13.776;2023-04-03T14:05:52;2.88;;;1.30;;
22166;SDS011;11249;52.468;13.776;2023-04-03T14:08:19;5.70;;;1.55;;
22166;SDS011;11249;52.468;13.776;2023-04-03T14:11:01;4.00;;;1.60;;
22166;SDS011;11249;52.468;13.776;2023-04-03T14:13:31;2.50;;;1.65;;
22166;SDS011;11249;52.468;13.776;2023-04-03T14:15:58;3.63;;;2.53;;
22166;SDS011;11249;52.468;13.776;2023-04-03T14:18:40;5.05;;;2.63;;
22166;SDS011;11249;52.468;13.776;2023-04-03T14:21:08;6.85;;;1.70;;
22166;SDS011;11249;52.468;13.776;2023-04-03T14:23:39;2.30;;;1.30;;
22166;SDS011;11249;52.468;13.776;2023-04-03T14:26:10;2.70;;;1.40;;
22166;SDS011;11249;52.468;13.776;2023-04-03T14:28:39;2.63;;;1.35;;
22166;SDS011;11249;52.468;13.776;2023-04-03T14:31:10;5.80;;;1.55;;
22166;SDS011;11249;52.468;13.776;2023-04-03T14:33:37;3.92;;;1.30;;
22166;SDS011;11249;52.468;13.776;2023-04-03T14:36:11;3.10;;;1.25;;
22166;SDS011;11249;52.468;13.776;2023-04-03T14:38:40;3.15;;;1.80;;
22166;SDS011;11249;52.468;13.776;2023-04-03T14:41:07;6.15;;;1.80;;
22166;SDS011;11249;52.468;13.776;2023-04-03T14:43:42;3.47;;;2.53;;
22166;SDS011;11249;52.468;13.776;2023-04-03T14:46:11;2.60;;;1.50;;
22166;SDS011;11249;52.468;13.776;2023-04-03T14:48:44;3.35;;;1.48;;
22166;SDS011;11249;52.468;13.776;2023-04-03T14:51:12;2.17;;;1.35;;
22166;SDS011;11249;52.468;13.776;2023-04-03T14:53:40;2.63;;;1.45;;
22166;SDS011;11249;52.468;13.776;2023-04-03T14:56:16;4.10;;;1.50;;
22166;SDS011;11249;52.468;13.776;2023-04-03T14:58:45;3.03;;;2.05;;
22166;SDS011;11249;52.468;13.776;2023-04-03T15:01:15;6.78;;;2.25;;
22166;SDS011;11249;52.468;13.776;2023-04-03T15:03:43;3.17;;;1.50;;
22166;SDS011;11249;52.468;13.776;2023-04-03T15:06:12;3.88;;;1.25;;
22166;SDS011;11249;52.468;13.776;2023-04-03T15:08:40;8.35;;;2.30;;
22166;SDS011;11249;52.468;13.776;2023-04-03T15:11:09;3.72;;;1.45;;
22166;SDS011;11249;52.468;13.776;2023-04-03T15:13:37;2.75;;;1.50;;
22166;SDS011;11249;52.468;13.776;2023-04-03T15:16:05;4.53;;;1.50;;
22166;SDS011;11249;52.468;13.776;2023-04-03T15:18:38;2.45;;;1.40;;
22166;SDS011;11249;52.468;13.776;2023-04-03T15:21:05;2.80;;;1.25;;
22166;SDS011;11249;52.468;13.776;2023-04-03T15:23:32;1.88;;;1.60;;
22166;SDS011;11249;52.468;13.776;2023-04-03T15:25:58;7.40;;;1.80;;
22166;SDS011;11249;52.468;13.776;2023-04-03T15:30:58;6.10;;;1.83;;
22166;SDS011;11249;52.468;13.776;2023-04-03T15:33:25;3.72;;;1.58;;
22166;SDS011;11249;52.468;13.776;2023-04-03T15:35:52;3.90;;;1.40;;
22166;SDS011;11249;52.468;13.776;2023-04-03T15:38:32;5.30;;;1.58;;
22166;SDS011;11249;52.468;13.776;2023-04-03T15:41:00;3.65;;;1.90;;
22166;SDS011;11249;52.468;13.776;2023-04-03T15:43:27;4.00;;;1.65;;
22166;SDS011;11249;52.468;13.776;2023-04-03T15:45:55;4.47;;;1.98;;
22166;SDS011;11249;52.468;13.776;2023-04-03T15:48:24;4.30;;;1.92;;
22166;SDS011;11249;52.468;13.776;2023-04-03T15:50:51;2.88;;;1.35;;
22166;SDS011;11249;52.468;13.776;2023-04-03T15:53:18;3.97;;;1.42;;
22166;SDS011;11249;52.468;13.776;2023-04-03T15:55:45;3.80;;;1.70;;
22166;SDS011;11249;52.468;13.776;2023-04-03T15:58:11;2.85;;;1.52;;
22166;SDS011;11249;52.468;13.776;2023-04-03T16:00:38;4.72;;;1.50;;
22166;SDS011;11249;52.468;13.776;2023-04-03T16:03:08;5.22;;;1.30;;
22166;SDS011;11249;52.468;13.776;2023-04-03T16:05:38;13.60;;;5.70;;
22166;SDS011;11249;52.468;13.776;2023-04-03T16:08:05;3.65;;;1.33;;
22166;SDS011;11249;52.468;13.776;2023-04-03T16:10:34;2.10;;;1.55;;
22166;SDS011;11249;52.468;13.776;2023-04-03T16:13:02;3.47;;;1.40;;
22166;SDS011;11249;52.468;13.776;2023-04-03T16:15:29;5.22;;;1.48;;
22166;SDS011;11249;52.468;13.776;2023-04-03T16:17:59;2.58;;;1.30;;
22166;SDS011;11249;52.468;13.776;2023-04-03T16:20:27;4.47;;;1.50;;
22166;SDS011;11249;52.468;13.776;2023-04-03T16:22:53;2.17;;;1.33;;